sensor_id;sensor_type;location;lat;lon;timestamp;P1;durP1;ratioP1;P2;durP2;ratioP2
17818;SDS011;9034;50.284;19.310;2023-02-28T00:00:36;11.27;;;6.70;;
17818;SDS011;9034;50.284;19.310;2023-02-28T00:01:39;12.32;;;7.00;;
17818;SDS011;9034;50.284;19.310;2023-02-28T00:02:41;9.13;;;6.20;;
17818;SDS011;9034;50.284;19.310;2023-02-28T00:03:45;11.73;;;6.15;;
17818;SDS011;9034;50.284;19.310;2023-02-28T00:04:46;14.45;;;6.93;;
17818;SDS011;9034;50.284;19.310;2023-02-28T00:05:54;12.52;;;6.72;;
17818;SDS011;9034;50.284;19.310;2023-02-28T00:06:56;11.68;;;6.22;;
17818;SDS011;9034;50.284;19.310;2023-02-28T00:07:58;11.45;;;5.50;;
17818;SDS011;9034;50.284;19.310;2023-02-28T00:09:00;9.38;;;5.57;;
17818;SDS011;9034;50.284;19.310;2023-02-28T00:10:04;10.73;;;6.93;;
17818;SDS011;9034;50.284;19.310;2023-02-28T00:11:09;18.10;;;8.27;;
17818;SDS011;9034;50.284;19.310;2023-02-28T00:12:31;10.85;;;6.40;;
17818;SDS011;9034;50.284;19.310;2023-02-28T00:13:35;9.32;;;6.32;;
17818;SDS011;9034;50.284;19.310;2023-02-28T00:14:40;11.13;;;5.57;;
17818;SDS011;9034;50.284;19.310;2023-02-28T00:15:42;11.85;;;5.82;;
17818;SDS011;9034;50.284;19.310;2023-02-28T00:16:46;10.23;;;6.00;;
17818;SDS011;9034;50.284;19.310;2023-02-28T00:17:48;11.38;;;6.45;;
17818;SDS011;9034;50.284;19.310;2023-02-28T00:18:51;11.40;;;5.93;;
17818;SDS011;9034;50.284;19.310;2023-02-28T00:19:53;9.35;;;5.22;;
17818;SDS011;9034;50.284;19.310;2023-02-28T00:20:56;10.55;;;5.97;;
17818;SDS011;9034;50.284;19.310;2023-02-28T00:21:58;11.30;;;5.82;;
17818;SDS011;9034;50.284;19.310;2023-02-28T00:23:01;11.95;;;6.07;;
17818;SDS011;9034;50.284;19.310;2023-02-28T00:24:03;10.75;;;5.95;;
17818;SDS011;9034;50.284;19.310;2023-02-28T00:25:06;8.70;;;5.45;;
17818;SDS011;9034;50.284;19.310;2023-02-28T00:26:09;8.98;;;5.25;;
17818;SDS011;9034;50.284;19.310;2023-02-28T00:27:14;9.15;;;5.40;;
17818;SDS011;9034;50.284;19.310;2023-02-28T00:28:16;9.85;;;5.75;;
17818;SDS011;9034;50.284;19.310;2023-02-28T00:29:19;10.68;;;6.25;;
17818;SDS011;9034;50.284;19.310;2023-02-28T00:30:23;8.02;;;5.10;;
17818;SDS011;9034;50.284;19.310;2023-02-28T00:31:26;9.73;;;5.40;;
17818;SDS011;9034;50.284;19.310;2023-02-28T00:32:29;7.63;;;5.40;;
17818;SDS011;9034;50.284;19.310;2023-02-28T00:33:32;8.18;;;4.88;;
17818;SDS011;9034;50.284;19.310;2023-02-28T00:34:34;8.30;;;5.13;;
17818;SDS011;9034;50.284;19.310;2023-02-28T00:35:39;9.52;;;5.53;;
17818;SDS011;9034;50.284;19.310;2023-02-28T00:36:43;9.95;;;5.97;;
17818;SDS011;9034;50.284;19.310;2023-02-28T00:37:50;12.43;;;6.55;;
17818;SDS011;9034;50.284;19.310;2023-02-28T00:38:52;12.75;;;6.28;;
17818;SDS011;9034;50.284;19.310;2023-02-28T00:39:55;11.45;;;6.32;;
17818;SDS011;9034;50.284;19.310;2023-02-28T00:40:56;10.38;;;5.63;;
17818;SDS011;9034;50.284;19.310;2023-02-28T00:42:06;10.48;;;6.15;;
17818;SDS011;9034;50.284;19.310;2023-02-28T00:43:08;9.88;;;6.28;;
17818;SDS011;9034;50.284;19.310;2023-02-28T00:44:11;9.35;;;5.60;;
17818;SDS011;9034;50.284;19.310;2023-02-28T00:45:13;10.27;;;5.90;;
17818;SDS011;9034;50.284;19.310;2023-02-28T00:46:18;10.10;;;6.03;;
17818;SDS011;9034;50.284;19.310;2023-02-28T00:47:20;11.05;;;6.18;;
17818;SDS011;9034;50.284;19.310;2023-02-28T00:48:23;10.43;;;6.38;;
17818;SDS011;9034;50.284;19.310;2023-02-28T00:49:25;12.48;;;6.05;;
17818;SDS011;9034;50.284;19.310;2023-02-28T00:50:28;11.25;;;6.22;;
17818;SDS011;9034;50.284;19.310;2023-02-28T00:51:31;10.27;;;5.78;;
17818;SDS011;9034;50.284;19.310;2023-02-28T00:52:34;12.82;;;6.30;;
17818;SDS011;9034;50.284;19.310;2023-02-28T00:53:35;9.80;;;6.35;;
17818;SDS011;9034;50.284;19.310;2023-02-28T00:54:38;12.95;;;6.85;;
17818;SDS011;9034;50.284;19.310;2023-02-28T00:55:41;9.15;;;5.35;;
17818;SDS011;9034;50.284;19.310;2023-02-28T00:56:44;13.05;;;7.13;;
17818;SDS011;9034;50.284;19.310;2023-02-28T00:57:47;12.77;;;6.32;;
17818;SDS011;9034;50.284;19.310;2023-02-28T00:58:50;13.48;;;6.32;;
17818;SDS011;9034;50.284;19.310;2023-02-28T00:59:53;11.02;;;6.30;;
17818;SDS011;9034;50.284;19.310;2023-02-28T01:00:57;11.25;;;6.45;;
17818;SDS011;9034;50.284;19.310;2023-02-28T01:02:00;11.10;;;6.47;;
17818;SDS011;9034;50.284;19.310;2023-02-28T01:03:03;12.68;;;6.45;;
17818;SDS011;9034;50.284;19.310;2023-02-28T01:04:05;11.38;;;6.70;;
17818;SDS011;9034;50.284;19.310;2023-02-28T01:05:09;13.15;;;6.43;;
17818;SDS011;9034;50.284;19.310;2023-02-28T01:06:11;11.05;;;6.43;;
17818;SDS011;9034;50.284;19.310;2023-02-28T01:07:14;13.38;;;6.57;;
17818;SDS011;9034;50.284;19.310;2023-02-28T01:08:16;11.30;;;6.30;;
17818;SDS011;9034;50.284;19.310;2023-02-28T01:09:19;11.73;;;6.45;;
17818;SDS011;9034;50.284;19.310;2023-02-28T01:10:21;11.13;;;6.65;;
17818;SDS011;9034;50.284;19.310;2023-02-28T01:11:23;13.63;;;6.72;;
17818;SDS011;9034;50.284;19.310;2023-02-28T01:12:27;12.63;;;6.53;;
17818;SDS011;9034;50.284;19.310;2023-02-28T01:13:31;11.68;;;6.05;;
17818;SDS011;9034;50.284;19.310;2023-02-28T01:14:33;12.45;;;6.35;;
17818;SDS011;9034;50.284;19.310;2023-02-28T01:15:45;15.13;;;7.65;;
17818;SDS011;9034;50.284;19.310;2023-02-28T01:16:48;15.68;;;8.45;;
17818;SDS011;9034;50.284;19.310;2023-02-28T01:17:52;13.65;;;7.50;;
17818;SDS011;9034;50.284;19.310;2023-02-28T01:18:56;14.07;;;6.85;;
17818;SDS011;9034;50.284;19.310;2023-02-28T01:19:59;16.13;;;7.57;;
17818;SDS011;9034;50.284;19.310;2023-02-28T01:21:03;12.07;;;7.25;;
17818;SDS011;9034;50.284;19.310;2023-02-28T01:22:06;14.35;;;7.38;;
17818;SDS011;9034;50.284;19.310;2023-02-28T01:23:09;11.75;;;6.43;;
17818;SDS011;9034;50.284;19.310;2023-02-28T01:24:11;15.98;;;7.05;;
17818;SDS011;9034;50.284;19.310;2023-02-28T01:25:15;12.55;;;6.65;;
17818;SDS011;9034;50.284;19.310;2023-02-28T01:26:18;14.23;;;7.00;;
17818;SDS011;9034;50.284;19.310;2023-02-28T01:27:22;14.00;;;7.22;;
17818;SDS011;9034;50.284;19.310;2023-02-28T01:28:26;13.20;;;7.15;;
17818;SDS011;9034;50.284;19.310;2023-02-28T01:29:31;16.42;;;8.45;;
17818;SDS011;9034;50.284;19.310;2023-02-28T01:30:32;22.25;;;10.13;;
17818;SDS011;9034;50.284;19.310;2023-02-28T01:31:35;20.92;;;10.45;;
17818;SDS011;9034;50.284;19.310;2023-02-28T01:32:38;20.10;;;10.35;;
17818;SDS011;9034;50.284;19.310;2023-02-28T01:33:42;17.98;;;9.57;;
17818;SDS011;9034;50.284;19.310;2023-02-28T01:34:44;17.35;;;9.75;;
17818;SDS011;9034;50.284;19.310;2023-02-28T01:35:47;17.60;;;9.60;;
17818;SDS011;9034;50.284;19.310;2023-02-28T01:36:49;18.52;;;9.18;;
17818;SDS011;9034;50.284;19.310;2023-02-28T01:37:53;16.83;;;8.85;;
17818;SDS011;9034;50.284;19.310;2023-02-28T01:38:55;18.35;;;9.05;;
17818;SDS011;9034;50.284;19.310;2023-02-28T01:39:58;19.35;;;9.48;;
17818;SDS011;9034;50.284;19.310;2023-02-28T01:41:00;22.05;;;9.50;;
17818;SDS011;9034;50.284;19.310;2023-02-28T01:42:03;20.77;;;9.68;;
17818;SDS011;9034;50.284;19.310;2023-02-28T01:43:09;17.40;;;9.07;;
17818;SDS011;9034;50.284;19.310;2023-02-28T01:46:03;14.68;;;7.53;;
17818;SDS011;9034;50.284;19.310;2023-02-28T01:47:05;15.68;;;7.82;;
17818;SDS011;9034;50.284;19.310;2023-02-28T01:48:08;18.98;;;8.52;;
17818;SDS011;9034;50.284;19.310;2023-02-28T01:49:12;15.07;;;7.85;;
17818;SDS011;9034;50.284;19.310;2023-02-28T01:50:17;15.60;;;7.50;;
17818;SDS011;9034;50.284;19.310;2023-02-28T01:51:21;16.15;;;7.93;;
17818;SDS011;9034;50.284;19.310;2023-02-28T01:52:25;14.85;;;6.95;;
17818;SDS011;9034;50.284;19.310;2023-02-28T01:53:29;13.77;;;7.32;;
17818;SDS011;9034;50.284;19.310;2023-02-28T01:54:34;13.27;;;7.25;;
17818;SDS011;9034;50.284;19.310;2023-02-28T01:55:37;11.88;;;6.80;;
17818;SDS011;9034;50.284;19.310;2023-02-28T01:56:41;13.45;;;7.18;;
17818;SDS011;9034;50.284;19.310;2023-02-28T01:57:45;15.65;;;7.00;;
17818;SDS011;9034;50.284;19.310;2023-02-28T01:58:51;13.25;;;6.93;;
17818;SDS011;9034;50.284;19.310;2023-02-28T01:59:54;17.17;;;8.70;;
17818;SDS011;9034;50.284;19.310;2023-02-28T02:00:59;11.85;;;6.97;;
17818;SDS011;9034;50.284;19.310;2023-02-28T02:02:04;13.90;;;7.47;;
17818;SDS011;9034;50.284;19.310;2023-02-28T02:03:08;14.27;;;7.47;;
17818;SDS011;9034;50.284;19.310;2023-02-28T02:04:12;15.07;;;7.40;;
17818;SDS011;9034;50.284;19.310;2023-02-28T02:05:16;10.95;;;6.88;;
17818;SDS011;9034;50.284;19.310;2023-02-28T02:06:20;13.35;;;6.45;;
17818;SDS011;9034;50.284;19.310;2023-02-28T02:07:23;12.13;;;6.53;;
17818;SDS011;9034;50.284;19.310;2023-02-28T02:08:26;10.95;;;6.18;;
17818;SDS011;9034;50.284;19.310;2023-02-28T02:09:30;12.43;;;6.55;;
17818;SDS011;9034;50.284;19.310;2023-02-28T02:10:33;14.32;;;6.57;;
17818;SDS011;9034;50.284;19.310;2023-02-28T02:11:40;12.82;;;7.15;;
17818;SDS011;9034;50.284;19.310;2023-02-28T02:12:54;12.60;;;7.10;;
17818;SDS011;9034;50.284;19.310;2023-02-28T02:14:18;14.85;;;6.68;;
17818;SDS011;9034;50.284;19.310;2023-02-28T02:15:34;14.90;;;7.07;;
17818;SDS011;9034;50.284;19.310;2023-02-28T02:16:42;12.52;;;7.25;;
17818;SDS011;9034;50.284;19.310;2023-02-28T02:17:53;13.55;;;6.93;;
17818;SDS011;9034;50.284;19.310;2023-02-28T02:18:59;15.15;;;7.15;;
17818;SDS011;9034;50.284;19.310;2023-02-28T02:20:16;17.75;;;7.82;;
17818;SDS011;9034;50.284;19.310;2023-02-28T02:24:49;14.02;;;6.53;;
17818;SDS011;9034;50.284;19.310;2023-02-28T02:26:03;11.13;;;6.20;;
17818;SDS011;9034;50.284;19.310;2023-02-28T02:27:32;12.07;;;6.88;;
17818;SDS011;9034;50.284;19.310;2023-02-28T02:28:49;11.73;;;6.78;;
17818;SDS011;9034;50.284;19.310;2023-02-28T02:31:54;12.32;;;6.28;;
17818;SDS011;9034;50.284;19.310;2023-02-28T02:34:53;9.57;;;6.32;;
17818;SDS011;9034;50.284;19.310;2023-02-28T02:36:01;10.90;;;6.45;;
17818;SDS011;9034;50.284;19.310;2023-02-28T02:37:11;14.88;;;6.35;;
17818;SDS011;9034;50.284;19.310;2023-02-28T02:38:18;15.02;;;6.63;;
17818;SDS011;9034;50.284;19.310;2023-02-28T02:39:29;14.45;;;6.85;;
17818;SDS011;9034;50.284;19.310;2023-02-28T02:40:33;12.77;;;6.15;;
17818;SDS011;9034;50.284;19.310;2023-02-28T02:41:40;10.75;;;6.32;;
17818;SDS011;9034;50.284;19.310;2023-02-28T02:42:50;9.70;;;6.00;;
17818;SDS011;9034;50.284;19.310;2023-02-28T02:43:54;14.40;;;6.80;;
17818;SDS011;9034;50.284;19.310;2023-02-28T02:45:00;10.77;;;6.13;;
17818;SDS011;9034;50.284;19.310;2023-02-28T02:46:06;10.75;;;6.63;;
17818;SDS011;9034;50.284;19.310;2023-02-28T02:47:11;9.40;;;6.15;;
17818;SDS011;9034;50.284;19.310;2023-02-28T02:48:16;12.13;;;6.38;;
17818;SDS011;9034;50.284;19.310;2023-02-28T02:49:21;14.75;;;7.47;;
17818;SDS011;9034;50.284;19.310;2023-02-28T02:50:29;13.02;;;6.80;;
17818;SDS011;9034;50.284;19.310;2023-02-28T02:51:34;10.88;;;6.38;;
17818;SDS011;9034;50.284;19.310;2023-02-28T02:52:38;11.80;;;6.53;;
17818;SDS011;9034;50.284;19.310;2023-02-28T02:53:44;12.50;;;6.55;;
17818;SDS011;9034;50.284;19.310;2023-02-28T02:54:52;12.25;;;6.80;;
17818;SDS011;9034;50.284;19.310;2023-02-28T02:55:57;12.27;;;6.38;;
17818;SDS011;9034;50.284;19.310;2023-02-28T02:57:01;11.45;;;7.80;;
17818;SDS011;9034;50.284;19.310;2023-02-28T02:58:07;15.02;;;8.50;;
17818;SDS011;9034;50.284;19.310;2023-02-28T02:59:11;12.68;;;7.80;;
17818;SDS011;9034;50.284;19.310;2023-02-28T03:00:16;13.95;;;7.15;;
17818;SDS011;9034;50.284;19.310;2023-02-28T03:01:21;23.25;;;8.02;;
17818;SDS011;9034;50.284;19.310;2023-02-28T03:02:30;17.45;;;6.80;;
17818;SDS011;9034;50.284;19.310;2023-02-28T03:03:35;12.23;;;6.82;;
17818;SDS011;9034;50.284;19.310;2023-02-28T03:04:39;11.75;;;6.70;;
17818;SDS011;9034;50.284;19.310;2023-02-28T03:05:47;11.73;;;5.90;;
17818;SDS011;9034;50.284;19.310;2023-02-28T03:06:51;10.15;;;6.20;;
17818;SDS011;9034;50.284;19.310;2023-02-28T03:07:56;10.77;;;6.85;;
17818;SDS011;9034;50.284;19.310;2023-02-28T03:08:59;13.25;;;6.85;;
17818;SDS011;9034;50.284;19.310;2023-02-28T03:10:02;13.63;;;6.82;;
17818;SDS011;9034;50.284;19.310;2023-02-28T03:11:06;14.05;;;7.35;;
17818;SDS011;9034;50.284;19.310;2023-02-28T03:12:15;12.65;;;7.00;;
17818;SDS011;9034;50.284;19.310;2023-02-28T03:14:49;11.90;;;6.65;;
17818;SDS011;9034;50.284;19.310;2023-02-28T03:16:07;10.57;;;6.40;;
17818;SDS011;9034;50.284;19.310;2023-02-28T03:17:26;13.00;;;6.65;;
17818;SDS011;9034;50.284;19.310;2023-02-28T03:18:39;12.15;;;7.45;;
17818;SDS011;9034;50.284;19.310;2023-02-28T03:19:45;11.63;;;6.57;;
17818;SDS011;9034;50.284;19.310;2023-02-28T03:20:56;13.88;;;6.20;;
17818;SDS011;9034;50.284;19.310;2023-02-28T03:22:11;12.50;;;7.72;;
17818;SDS011;9034;50.284;19.310;2023-02-28T03:23:28;12.30;;;6.43;;
17818;SDS011;9034;50.284;19.310;2023-02-28T03:24:34;12.77;;;7.95;;
17818;SDS011;9034;50.284;19.310;2023-02-28T03:25:50;16.48;;;8.02;;
17818;SDS011;9034;50.284;19.310;2023-02-28T03:26:57;14.48;;;7.57;;
17818;SDS011;9034;50.284;19.310;2023-02-28T03:28:04;15.70;;;7.68;;
17818;SDS011;9034;50.284;19.310;2023-02-28T03:29:12;15.45;;;8.23;;
17818;SDS011;9034;50.284;19.310;2023-02-28T03:30:20;15.32;;;7.50;;
17818;SDS011;9034;50.284;19.310;2023-02-28T03:31:26;16.63;;;8.38;;
17818;SDS011;9034;50.284;19.310;2023-02-28T03:32:33;15.77;;;7.63;;
17818;SDS011;9034;50.284;19.310;2023-02-28T03:33:38;13.38;;;7.57;;
17818;SDS011;9034;50.284;19.310;2023-02-28T03:34:43;14.52;;;6.93;;
17818;SDS011;9034;50.284;19.310;2023-02-28T03:35:50;13.23;;;6.60;;
17818;SDS011;9034;50.284;19.310;2023-02-28T03:36:57;13.55;;;7.57;;
17818;SDS011;9034;50.284;19.310;2023-02-28T03:38:06;14.55;;;7.32;;
17818;SDS011;9034;50.284;19.310;2023-02-28T03:39:11;13.43;;;7.15;;
17818;SDS011;9034;50.284;19.310;2023-02-28T03:40:17;12.98;;;6.97;;
17818;SDS011;9034;50.284;19.310;2023-02-28T03:41:22;13.98;;;7.35;;
17818;SDS011;9034;50.284;19.310;2023-02-28T03:42:28;13.40;;;6.97;;
17818;SDS011;9034;50.284;19.310;2023-02-28T03:43:32;12.35;;;7.05;;
17818;SDS011;9034;50.284;19.310;2023-02-28T03:44:38;14.00;;;7.57;;
17818;SDS011;9034;50.284;19.310;2023-02-28T03:45:41;14.43;;;7.35;;
17818;SDS011;9034;50.284;19.310;2023-02-28T03:46:47;15.80;;;8.38;;
17818;SDS011;9034;50.284;19.310;2023-02-28T03:47:53;14.65;;;7.47;;
17818;SDS011;9034;50.284;19.310;2023-02-28T03:48:59;13.32;;;7.72;;
17818;SDS011;9034;50.284;19.310;2023-02-28T03:50:05;13.27;;;8.23;;
17818;SDS011;9034;50.284;19.310;2023-02-28T03:51:10;14.65;;;7.45;;
17818;SDS011;9034;50.284;19.310;2023-02-28T03:52:16;18.55;;;8.38;;
17818;SDS011;9034;50.284;19.310;2023-02-28T03:53:21;13.77;;;6.90;;
17818;SDS011;9034;50.284;19.310;2023-02-28T03:54:27;11.55;;;7.05;;
17818;SDS011;9034;50.284;19.310;2023-02-28T03:55:33;12.73;;;7.20;;
17818;SDS011;9034;50.284;19.310;2023-02-28T03:56:37;13.10;;;7.88;;
17818;SDS011;9034;50.284;19.310;2023-02-28T03:57:43;13.68;;;7.70;;
17818;SDS011;9034;50.284;19.310;2023-02-28T03:58:54;14.77;;;8.55;;
17818;SDS011;9034;50.284;19.310;2023-02-28T04:00:00;14.73;;;7.03;;
17818;SDS011;9034;50.284;19.310;2023-02-28T04:01:15;15.68;;;7.40;;
17818;SDS011;9034;50.284;19.310;2023-02-28T04:02:22;14.95;;;8.40;;
17818;SDS011;9034;50.284;19.310;2023-02-28T04:03:24;15.18;;;8.02;;
17818;SDS011;9034;50.284;19.310;2023-02-28T04:04:26;17.35;;;8.82;;
17818;SDS011;9034;50.284;19.310;2023-02-28T04:05:28;21.40;;;11.15;;
17818;SDS011;9034;50.284;19.310;2023-02-28T04:06:32;24.67;;;12.77;;
17818;SDS011;9034;50.284;19.310;2023-02-28T04:07:36;28.95;;;13.48;;
17818;SDS011;9034;50.284;19.310;2023-02-28T04:08:39;26.67;;;13.55;;
17818;SDS011;9034;50.284;19.310;2023-02-28T04:09:41;17.40;;;10.23;;
17818;SDS011;9034;50.284;19.310;2023-02-28T04:10:45;20.13;;;9.40;;
17818;SDS011;9034;50.284;19.310;2023-02-28T04:11:51;19.95;;;11.07;;
17818;SDS011;9034;50.284;19.310;2023-02-28T04:12:55;19.70;;;9.93;;
17818;SDS011;9034;50.284;19.310;2023-02-28T04:13:57;19.13;;;10.43;;
17818;SDS011;9034;50.284;19.310;2023-02-28T04:14:59;16.65;;;9.73;;
17818;SDS011;9034;50.284;19.310;2023-02-28T04:16:21;14.20;;;8.45;;
17818;SDS011;9034;50.284;19.310;2023-02-28T04:17:35;12.35;;;7.38;;
17818;SDS011;9034;50.284;19.310;2023-02-28T04:18:38;16.75;;;7.95;;
17818;SDS011;9034;50.284;19.310;2023-02-28T04:19:40;13.00;;;7.80;;
17818;SDS011;9034;50.284;19.310;2023-02-28T04:20:43;14.38;;;8.30;;
17818;SDS011;9034;50.284;19.310;2023-02-28T04:21:45;12.70;;;7.82;;
17818;SDS011;9034;50.284;19.310;2023-02-28T04:22:51;14.57;;;7.57;;
17818;SDS011;9034;50.284;19.310;2023-02-28T04:24:13;13.30;;;7.60;;
17818;SDS011;9034;50.284;19.310;2023-02-28T04:25:16;12.80;;;6.80;;
17818;SDS011;9034;50.284;19.310;2023-02-28T04:26:18;14.30;;;8.43;;
17818;SDS011;9034;50.284;19.310;2023-02-28T04:27:21;13.18;;;8.30;;
17818;SDS011;9034;50.284;19.310;2023-02-28T04:28:23;17.10;;;8.15;;
17818;SDS011;9034;50.284;19.310;2023-02-28T04:29:26;14.93;;;8.15;;
17818;SDS011;9034;50.284;19.310;2023-02-28T04:30:29;17.90;;;8.07;;
17818;SDS011;9034;50.284;19.310;2023-02-28T04:31:33;14.73;;;7.70;;
17818;SDS011;9034;50.284;19.310;2023-02-28T04:32:36;16.00;;;9.13;;
17818;SDS011;9034;50.284;19.310;2023-02-28T04:33:38;14.98;;;7.97;;
17818;SDS011;9034;50.284;19.310;2023-02-28T04:34:42;14.57;;;8.05;;
17818;SDS011;9034;50.284;19.310;2023-02-28T04:35:43;15.70;;;8.02;;
17818;SDS011;9034;50.284;19.310;2023-02-28T04:36:46;15.18;;;8.25;;
17818;SDS011;9034;50.284;19.310;2023-02-28T04:38:08;14.13;;;7.53;;
17818;SDS011;9034;50.284;19.310;2023-02-28T04:39:10;12.18;;;7.53;;
17818;SDS011;9034;50.284;19.310;2023-02-28T04:40:12;13.80;;;7.80;;
17818;SDS011;9034;50.284;19.310;2023-02-28T04:41:16;14.05;;;8.07;;
17818;SDS011;9034;50.284;19.310;2023-02-28T04:42:18;16.15;;;7.60;;
17818;SDS011;9034;50.284;19.310;2023-02-28T04:43:20;14.27;;;8.10;;
17818;SDS011;9034;50.284;19.310;2023-02-28T04:44:41;14.95;;;8.40;;
17818;SDS011;9034;50.284;19.310;2023-02-28T04:45:44;16.42;;;8.35;;
17818;SDS011;9034;50.284;19.310;2023-02-28T04:46:47;14.65;;;8.20;;
17818;SDS011;9034;50.284;19.310;2023-02-28T04:47:50;16.15;;;8.90;;
17818;SDS011;9034;50.284;19.310;2023-02-28T04:48:52;15.85;;;8.65;;
17818;SDS011;9034;50.284;19.310;2023-02-28T04:49:55;15.93;;;8.15;;
17818;SDS011;9034;50.284;19.310;2023-02-28T04:50:59;13.30;;;8.45;;
17818;SDS011;9034;50.284;19.310;2023-02-28T04:52:02;15.00;;;8.70;;
17818;SDS011;9034;50.284;19.310;2023-02-28T04:53:05;15.73;;;8.57;;
17818;SDS011;9034;50.284;19.310;2023-02-28T04:54:09;13.82;;;8.30;;
17818;SDS011;9034;50.284;19.310;2023-02-28T04:55:11;19.88;;;9.55;;
17818;SDS011;9034;50.284;19.310;2023-02-28T04:56:14;13.05;;;8.00;;
17818;SDS011;9034;50.284;19.310;2023-02-28T04:57:18;18.25;;;8.25;;
17818;SDS011;9034;50.284;19.310;2023-02-28T04:58:20;14.52;;;8.20;;
17818;SDS011;9034;50.284;19.310;2023-02-28T04:59:24;19.25;;;9.65;;
17818;SDS011;9034;50.284;19.310;2023-02-28T05:00:26;14.88;;;8.18;;
17818;SDS011;9034;50.284;19.310;2023-02-28T05:01:30;16.58;;;8.07;;
17818;SDS011;9034;50.284;19.310;2023-02-28T05:02:34;16.17;;;8.98;;
17818;SDS011;9034;50.284;19.310;2023-02-28T05:03:36;14.98;;;7.55;;
17818;SDS011;9034;50.284;19.310;2023-02-28T05:04:39;14.98;;;8.48;;
17818;SDS011;9034;50.284;19.310;2023-02-28T05:05:41;15.30;;;8.57;;
17818;SDS011;9034;50.284;19.310;2023-02-28T05:06:44;14.15;;;8.30;;
17818;SDS011;9034;50.284;19.310;2023-02-28T05:07:46;15.85;;;8.10;;
17818;SDS011;9034;50.284;19.310;2023-02-28T05:08:50;14.43;;;7.60;;
17818;SDS011;9034;50.284;19.310;2023-02-28T05:09:53;15.20;;;8.13;;
17818;SDS011;9034;50.284;19.310;2023-02-28T05:11:16;13.05;;;7.30;;
17818;SDS011;9034;50.284;19.310;2023-02-28T05:12:20;15.48;;;8.57;;
17818;SDS011;9034;50.284;19.310;2023-02-28T05:13:22;13.35;;;7.25;;
17818;SDS011;9034;50.284;19.310;2023-02-28T05:14:24;15.18;;;8.23;;
17818;SDS011;9034;50.284;19.310;2023-02-28T05:15:27;14.07;;;8.32;;
17818;SDS011;9034;50.284;19.310;2023-02-28T05:16:29;23.45;;;8.65;;
17818;SDS011;9034;50.284;19.310;2023-02-28T05:17:32;16.45;;;8.43;;
17818;SDS011;9034;50.284;19.310;2023-02-28T05:18:34;18.70;;;8.80;;
17818;SDS011;9034;50.284;19.310;2023-02-28T05:19:37;17.20;;;8.35;;
17818;SDS011;9034;50.284;19.310;2023-02-28T05:20:40;17.00;;;8.30;;
17818;SDS011;9034;50.284;19.310;2023-02-28T05:21:48;15.07;;;9.30;;
17818;SDS011;9034;50.284;19.310;2023-02-28T05:22:52;18.65;;;9.35;;
17818;SDS011;9034;50.284;19.310;2023-02-28T05:23:55;17.77;;;8.48;;
17818;SDS011;9034;50.284;19.310;2023-02-28T05:24:59;16.83;;;8.60;;
17818;SDS011;9034;50.284;19.310;2023-02-28T05:26:01;15.82;;;8.38;;
17818;SDS011;9034;50.284;19.310;2023-02-28T05:27:03;16.40;;;7.82;;
17818;SDS011;9034;50.284;19.310;2023-02-28T05:28:06;12.38;;;7.28;;
17818;SDS011;9034;50.284;19.310;2023-02-28T05:29:09;14.57;;;8.48;;
17818;SDS011;9034;50.284;19.310;2023-02-28T05:30:11;16.95;;;8.43;;
17818;SDS011;9034;50.284;19.310;2023-02-28T05:31:15;16.50;;;8.52;;
17818;SDS011;9034;50.284;19.310;2023-02-28T05:32:16;15.23;;;8.65;;
17818;SDS011;9034;50.284;19.310;2023-02-28T05:33:19;14.77;;;8.52;;
17818;SDS011;9034;50.284;19.310;2023-02-28T05:34:21;16.48;;;8.82;;
17818;SDS011;9034;50.284;19.310;2023-02-28T05:35:24;14.50;;;8.63;;
17818;SDS011;9034;50.284;19.310;2023-02-28T05:36:26;16.02;;;9.05;;
17818;SDS011;9034;50.284;19.310;2023-02-28T05:37:29;15.70;;;8.65;;
17818;SDS011;9034;50.284;19.310;2023-02-28T05:38:31;18.42;;;9.38;;
17818;SDS011;9034;50.284;19.310;2023-02-28T05:39:36;22.35;;;10.90;;
17818;SDS011;9034;50.284;19.310;2023-02-28T05:40:38;17.55;;;9.27;;
17818;SDS011;9034;50.284;19.310;2023-02-28T05:41:42;18.50;;;9.43;;
17818;SDS011;9034;50.284;19.310;2023-02-28T05:42:44;19.45;;;10.23;;
17818;SDS011;9034;50.284;19.310;2023-02-28T05:43:47;17.67;;;9.30;;
17818;SDS011;9034;50.284;19.310;2023-02-28T05:44:50;21.42;;;10.73;;
17818;SDS011;9034;50.284;19.310;2023-02-28T05:45:53;27.45;;;12.07;;
17818;SDS011;9034;50.284;19.310;2023-02-28T05:46:55;24.08;;;12.18;;
17818;SDS011;9034;50.284;19.310;2023-02-28T05:47:57;24.45;;;12.82;;
17818;SDS011;9034;50.284;19.310;2023-02-28T05:48:59;21.33;;;11.93;;
17818;SDS011;9034;50.284;19.310;2023-02-28T05:50:02;22.10;;;11.60;;
17818;SDS011;9034;50.284;19.310;2023-02-28T05:51:05;22.15;;;11.57;;
17818;SDS011;9034;50.284;19.310;2023-02-28T05:52:08;19.23;;;10.70;;
17818;SDS011;9034;50.284;19.310;2023-02-28T05:53:10;21.23;;;12.38;;
17818;SDS011;9034;50.284;19.310;2023-02-28T05:54:13;24.58;;;10.60;;
17818;SDS011;9034;50.284;19.310;2023-02-28T05:55:16;24.88;;;12.60;;
17818;SDS011;9034;50.284;19.310;2023-02-28T05:56:19;29.08;;;13.30;;
17818;SDS011;9034;50.284;19.310;2023-02-28T05:57:22;23.50;;;12.93;;
17818;SDS011;9034;50.284;19.310;2023-02-28T05:58:25;22.63;;;12.80;;
17818;SDS011;9034;50.284;19.310;2023-02-28T05:59:31;23.30;;;12.18;;
17818;SDS011;9034;50.284;19.310;2023-02-28T06:00:34;27.52;;;12.05;;
17818;SDS011;9034;50.284;19.310;2023-02-28T06:01:37;23.15;;;12.27;;
17818;SDS011;9034;50.284;19.310;2023-02-28T06:02:42;21.15;;;11.80;;
17818;SDS011;9034;50.284;19.310;2023-02-28T06:03:44;20.95;;;11.75;;
17818;SDS011;9034;50.284;19.310;2023-02-28T06:04:47;23.65;;;12.35;;
17818;SDS011;9034;50.284;19.310;2023-02-28T06:05:49;25.05;;;13.73;;
17818;SDS011;9034;50.284;19.310;2023-02-28T06:06:52;25.50;;;13.38;;
17818;SDS011;9034;50.284;19.310;2023-02-28T06:07:54;24.27;;;14.02;;
17818;SDS011;9034;50.284;19.310;2023-02-28T06:08:57;25.58;;;13.98;;
17818;SDS011;9034;50.284;19.310;2023-02-28T06:09:59;29.67;;;15.52;;
17818;SDS011;9034;50.284;19.310;2023-02-28T06:11:04;26.13;;;15.57;;
17818;SDS011;9034;50.284;19.310;2023-02-28T06:12:06;29.13;;;16.20;;
17818;SDS011;9034;50.284;19.310;2023-02-28T06:13:11;28.55;;;16.33;;
17818;SDS011;9034;50.284;19.310;2023-02-28T06:14:14;26.77;;;15.82;;
17818;SDS011;9034;50.284;19.310;2023-02-28T06:15:17;27.40;;;15.93;;
17818;SDS011;9034;50.284;19.310;2023-02-28T06:16:19;26.45;;;16.13;;
17818;SDS011;9034;50.284;19.310;2023-02-28T06:17:22;29.48;;;16.80;;
17818;SDS011;9034;50.284;19.310;2023-02-28T06:18:24;30.40;;;17.42;;
17818;SDS011;9034;50.284;19.310;2023-02-28T06:19:27;32.90;;;19.05;;
17818;SDS011;9034;50.284;19.310;2023-02-28T06:20:30;34.10;;;19.98;;
17818;SDS011;9034;50.284;19.310;2023-02-28T06:21:32;35.03;;;21.08;;
17818;SDS011;9034;50.284;19.310;2023-02-28T06:22:35;33.55;;;19.75;;
17818;SDS011;9034;50.284;19.310;2023-02-28T06:23:37;24.92;;;15.32;;
17818;SDS011;9034;50.284;19.310;2023-02-28T06:24:40;28.25;;;15.57;;
17818;SDS011;9034;50.284;19.310;2023-02-28T06:25:44;27.85;;;17.17;;
17818;SDS011;9034;50.284;19.310;2023-02-28T06:26:48;22.63;;;14.68;;
17818;SDS011;9034;50.284;19.310;2023-02-28T06:27:51;25.67;;;15.48;;
17818;SDS011;9034;50.284;19.310;2023-02-28T06:28:53;23.15;;;12.68;;
17818;SDS011;9034;50.284;19.310;2023-02-28T06:29:55;19.27;;;12.02;;
17818;SDS011;9034;50.284;19.310;2023-02-28T06:30:59;18.08;;;11.80;;
17818;SDS011;9034;50.284;19.310;2023-02-28T06:32:07;21.90;;;12.70;;
17818;SDS011;9034;50.284;19.310;2023-02-28T06:33:10;20.63;;;12.18;;
17818;SDS011;9034;50.284;19.310;2023-02-28T06:34:13;20.42;;;13.00;;